sensor_id;sensor_type;location;lat;lon;timestamp;P1;durP1;ratioP1;P2;durP2;ratioP2
22525;SDS011;11429;50.842;4.386;2022-12-11T00:01:26;26.83;;;14.75;;
22525;SDS011;11429;50.842;4.386;2022-12-11T00:03:55;27.63;;;14.80;;
22525;SDS011;11429;50.842;4.386;2022-12-11T00:06:21;28.08;;;15.43;;
22525;SDS011;11429;50.842;4.386;2022-12-11T00:08:50;27.00;;;15.13;;
22525;SDS011;11429;50.842;4.386;2022-12-11T00:11:18;24.00;;;14.13;;
22525;SDS011;11429;50.842;4.386;2022-12-11T00:13:44;28.05;;;15.40;;
22525;SDS011;11429;50.842;4.386;2022-12-11T00:16:10;27.50;;;15.35;;
22525;SDS011;11429;50.842;4.386;2022-12-11T00:18:36;26.02;;;14.85;;
22525;SDS011;11429;50.842;4.386;2022-12-11T00:21:02;23.17;;;13.57;;
22525;SDS011;11429;50.842;4.386;2022-12-11T00:23:29;29.88;;;17.42;;
22525;SDS011;11429;50.842;4.386;2022-12-11T00:25:55;25.45;;;14.85;;
22525;SDS011;11429;50.842;4.386;2022-12-11T00:28:22;32.28;;;16.83;;
22525;SDS011;11429;50.842;4.386;2022-12-11T00:30:48;28.17;;;15.88;;
22525;SDS011;11429;50.842;4.386;2022-12-11T00:33:14;27.55;;;16.02;;
22525;SDS011;11429;50.842;4.386;2022-12-11T00:35:42;27.77;;;15.57;;
22525;SDS011;11429;50.842;4.386;2022-12-11T00:38:14;28.65;;;17.02;;
22525;SDS011;11429;50.842;4.386;2022-12-11T00:40:41;26.48;;;15.50;;
22525;SDS011;11429;50.842;4.386;2022-12-11T00:43:07;29.42;;;16.20;;
22525;SDS011;11429;50.842;4.386;2022-12-11T00:45:36;26.70;;;16.30;;
22525;SDS011;11429;50.842;4.386;2022-12-11T00:48:06;30.00;;;16.85;;
22525;SDS011;11429;50.842;4.386;2022-12-11T00:50:33;26.15;;;16.17;;
22525;SDS011;11429;50.842;4.386;2022-12-11T00:52:59;28.30;;;16.48;;
22525;SDS011;11429;50.842;4.386;2022-12-11T00:55:25;28.83;;;16.45;;
22525;SDS011;11429;50.842;4.386;2022-12-11T00:57:52;28.63;;;16.35;;
22525;SDS011;11429;50.842;4.386;2022-12-11T01:00:19;33.50;;;17.13;;
22525;SDS011;11429;50.842;4.386;2022-12-11T01:02:44;28.50;;;15.43;;
22525;SDS011;11429;50.842;4.386;2022-12-11T01:05:10;28.13;;;16.10;;
22525;SDS011;11429;50.842;4.386;2022-12-11T01:07:36;30.55;;;17.00;;
22525;SDS011;11429;50.842;4.386;2022-12-11T01:10:02;28.60;;;15.77;;
22525;SDS011;11429;50.842;4.386;2022-12-11T01:12:47;28.52;;;16.73;;
22525;SDS011;11429;50.842;4.386;2022-12-11T01:15:12;30.23;;;16.17;;
22525;SDS011;11429;50.842;4.386;2022-12-11T01:17:38;31.00;;;16.45;;
22525;SDS011;11429;50.842;4.386;2022-12-11T01:20:04;27.45;;;16.30;;
22525;SDS011;11429;50.842;4.386;2022-12-11T01:22:30;34.17;;;17.48;;
22525;SDS011;11429;50.842;4.386;2022-12-11T01:24:56;28.73;;;17.50;;
22525;SDS011;11429;50.842;4.386;2022-12-11T01:27:22;31.92;;;17.33;;
22525;SDS011;11429;50.842;4.386;2022-12-11T01:29:48;29.15;;;15.98;;
22525;SDS011;11429;50.842;4.386;2022-12-11T01:32:14;32.38;;;17.30;;
22525;SDS011;11429;50.842;4.386;2022-12-11T01:34:40;33.28;;;18.38;;
22525;SDS011;11429;50.842;4.386;2022-12-11T01:37:06;27.30;;;16.30;;
22525;SDS011;11429;50.842;4.386;2022-12-11T01:39:32;29.25;;;16.23;;
22525;SDS011;11429;50.842;4.386;2022-12-11T01:41:58;28.65;;;16.75;;
22525;SDS011;11429;50.842;4.386;2022-12-11T01:46:50;30.77;;;17.48;;
22525;SDS011;11429;50.842;4.386;2022-12-11T01:49:17;31.42;;;16.23;;
22525;SDS011;11429;50.842;4.386;2022-12-11T01:51:57;33.08;;;18.10;;
22525;SDS011;11429;50.842;4.386;2022-12-11T01:56:56;30.15;;;17.83;;
22525;SDS011;11429;50.842;4.386;2022-12-11T01:59:27;31.80;;;16.80;;
22525;SDS011;11429;50.842;4.386;2022-12-11T02:01:58;31.88;;;17.95;;
22525;SDS011;11429;50.842;4.386;2022-12-11T02:04:34;31.73;;;17.10;;
22525;SDS011;11429;50.842;4.386;2022-12-11T02:07:02;31.77;;;17.77;;
22525;SDS011;11429;50.842;4.386;2022-12-11T02:09:29;30.35;;;17.88;;
22525;SDS011;11429;50.842;4.386;2022-12-11T02:14:33;32.67;;;18.58;;
22525;SDS011;11429;50.842;4.386;2022-12-11T02:17:03;32.47;;;18.20;;
22525;SDS011;11429;50.842;4.386;2022-12-11T02:19:52;30.30;;;17.87;;
22525;SDS011;11429;50.842;4.386;2022-12-11T02:28:09;35.20;;;19.33;;
22525;SDS011;11429;50.842;4.386;2022-12-11T02:30:40;30.23;;;17.13;;
22525;SDS011;11429;50.842;4.386;2022-12-11T02:33:08;34.95;;;17.98;;
22525;SDS011;11429;50.842;4.386;2022-12-11T02:35:38;32.90;;;17.83;;
22525;SDS011;11429;50.842;4.386;2022-12-11T02:38:07;30.75;;;16.98;;
22525;SDS011;11429;50.842;4.386;2022-12-11T02:40:39;35.47;;;19.63;;
22525;SDS011;11429;50.842;4.386;2022-12-11T02:43:09;35.83;;;19.48;;
22525;SDS011;11429;50.842;4.386;2022-12-11T02:45:38;34.53;;;18.20;;
22525;SDS011;11429;50.842;4.386;2022-12-11T02:48:06;29.65;;;17.00;;
22525;SDS011;11429;50.842;4.386;2022-12-11T02:50:35;31.48;;;18.65;;
22525;SDS011;11429;50.842;4.386;2022-12-11T02:53:06;29.75;;;18.02;;
22525;SDS011;11429;50.842;4.386;2022-12-11T02:55:35;33.13;;;18.40;;
22525;SDS011;11429;50.842;4.386;2022-12-11T03:00:27;32.22;;;17.63;;
22525;SDS011;11429;50.842;4.386;2022-12-11T03:02:53;33.30;;;17.85;;
22525;SDS011;11429;50.842;4.386;2022-12-11T03:05:19;30.75;;;18.20;;
22525;SDS011;11429;50.842;4.386;2022-12-11T03:07:44;32.22;;;17.85;;
22525;SDS011;11429;50.842;4.386;2022-12-11T03:10:11;30.95;;;18.35;;
22525;SDS011;11429;50.842;4.386;2022-12-11T03:12:40;34.65;;;18.90;;
22525;SDS011;11429;50.842;4.386;2022-12-11T03:15:09;33.00;;;18.73;;
22525;SDS011;11429;50.842;4.386;2022-12-11T03:20:27;37.90;;;19.10;;
22525;SDS011;11429;50.842;4.386;2022-12-11T03:25:37;35.92;;;19.52;;
22525;SDS011;11429;50.842;4.386;2022-12-11T03:28:46;37.47;;;21.45;;
22525;SDS011;11429;50.842;4.386;2022-12-11T03:31:04;43.90;;;22.40;;
22525;SDS011;11429;50.842;4.386;2022-12-11T03:33:37;37.97;;;19.83;;
22525;SDS011;11429;50.842;4.386;2022-12-11T03:36:08;38.10;;;21.38;;
22525;SDS011;11429;50.842;4.386;2022-12-11T03:38:37;42.03;;;22.17;;
22525;SDS011;11429;50.842;4.386;2022-12-11T03:41:09;43.03;;;22.02;;
22525;SDS011;11429;50.842;4.386;2022-12-11T03:43:38;39.95;;;21.38;;
22525;SDS011;11429;50.842;4.386;2022-12-11T03:46:05;43.20;;;22.48;;
22525;SDS011;11429;50.842;4.386;2022-12-11T03:48:34;43.97;;;21.35;;
22525;SDS011;11429;50.842;4.386;2022-12-11T03:51:05;44.47;;;22.77;;
22525;SDS011;11429;50.842;4.386;2022-12-11T03:53:33;44.35;;;21.90;;
22525;SDS011;11429;50.842;4.386;2022-12-11T03:56:00;44.42;;;21.10;;
22525;SDS011;11429;50.842;4.386;2022-12-11T03:58:28;41.83;;;20.83;;
22525;SDS011;11429;50.842;4.386;2022-12-11T04:00:53;42.13;;;22.40;;
22525;SDS011;11429;50.842;4.386;2022-12-11T04:03:19;42.53;;;23.23;;
22525;SDS011;11429;50.842;4.386;2022-12-11T04:05:47;42.80;;;22.38;;
22525;SDS011;11429;50.842;4.386;2022-12-11T04:08:14;45.20;;;22.77;;
22525;SDS011;11429;50.842;4.386;2022-12-11T04:10:40;46.78;;;21.65;;
22525;SDS011;11429;50.842;4.386;2022-12-11T04:13:07;47.30;;;22.85;;
22525;SDS011;11429;50.842;4.386;2022-12-11T04:15:34;47.90;;;23.80;;
22525;SDS011;11429;50.842;4.386;2022-12-11T04:17:59;44.20;;;21.98;;
22525;SDS011;11429;50.842;4.386;2022-12-11T04:20:44;42.92;;;22.23;;
22525;SDS011;11429;50.842;4.386;2022-12-11T04:23:28;43.70;;;22.92;;
22525;SDS011;11429;50.842;4.386;2022-12-11T04:26:16;42.88;;;22.83;;
22525;SDS011;11429;50.842;4.386;2022-12-11T04:28:45;45.53;;;22.85;;
22525;SDS011;11429;50.842;4.386;2022-12-11T04:31:12;42.05;;;22.00;;
22525;SDS011;11429;50.842;4.386;2022-12-11T04:33:39;43.40;;;22.00;;
22525;SDS011;11429;50.842;4.386;2022-12-11T04:36:05;45.90;;;23.85;;
22525;SDS011;11429;50.842;4.386;2022-12-11T04:38:31;44.97;;;21.45;;
22525;SDS011;11429;50.842;4.386;2022-12-11T04:40:58;42.53;;;21.67;;
22525;SDS011;11429;50.842;4.386;2022-12-11T04:43:27;43.40;;;21.98;;
22525;SDS011;11429;50.842;4.386;2022-12-11T04:46:03;46.15;;;22.58;;
22525;SDS011;11429;50.842;4.386;2022-12-11T04:48:30;41.25;;;22.02;;
22525;SDS011;11429;50.842;4.386;2022-12-11T04:50:56;44.75;;;23.35;;
22525;SDS011;11429;50.842;4.386;2022-12-11T04:53:24;45.20;;;23.55;;
22525;SDS011;11429;50.842;4.386;2022-12-11T04:55:50;44.53;;;22.65;;
22525;SDS011;11429;50.842;4.386;2022-12-11T04:58:16;41.75;;;22.35;;
22525;SDS011;11429;50.842;4.386;2022-12-11T05:00:42;47.65;;;23.98;;
22525;SDS011;11429;50.842;4.386;2022-12-11T05:03:13;43.05;;;22.65;;
22525;SDS011;11429;50.842;4.386;2022-12-11T05:05:39;48.25;;;23.42;;
22525;SDS011;11429;50.842;4.386;2022-12-11T05:08:11;43.90;;;21.38;;
22525;SDS011;11429;50.842;4.386;2022-12-11T05:10:37;43.17;;;22.10;;
22525;SDS011;11429;50.842;4.386;2022-12-11T05:13:03;46.58;;;23.40;;
22525;SDS011;11429;50.842;4.386;2022-12-11T05:15:29;43.95;;;23.77;;
22525;SDS011;11429;50.842;4.386;2022-12-11T05:17:58;43.58;;;22.33;;
22525;SDS011;11429;50.842;4.386;2022-12-11T05:20:24;45.03;;;22.27;;
22525;SDS011;11429;50.842;4.386;2022-12-11T05:22:49;41.58;;;21.55;;
22525;SDS011;11429;50.842;4.386;2022-12-11T05:25:15;44.70;;;21.83;;
22525;SDS011;11429;50.842;4.386;2022-12-11T05:27:42;43.47;;;21.50;;
22525;SDS011;11429;50.842;4.386;2022-12-11T05:30:08;38.35;;;21.02;;
22525;SDS011;11429;50.842;4.386;2022-12-11T05:32:34;46.20;;;22.38;;
22525;SDS011;11429;50.842;4.386;2022-12-11T05:35:00;44.17;;;22.65;;
22525;SDS011;11429;50.842;4.386;2022-12-11T05:37:27;43.75;;;22.40;;
22525;SDS011;11429;50.842;4.386;2022-12-11T05:39:54;43.70;;;23.60;;
22525;SDS011;11429;50.842;4.386;2022-12-11T05:42:20;41.10;;;21.73;;
22525;SDS011;11429;50.842;4.386;2022-12-11T05:44:46;42.72;;;22.33;;
22525;SDS011;11429;50.842;4.386;2022-12-11T05:47:14;45.90;;;23.95;;
22525;SDS011;11429;50.842;4.386;2022-12-11T05:49:44;46.00;;;24.02;;
22525;SDS011;11429;50.842;4.386;2022-12-11T05:52:11;43.53;;;23.10;;
22525;SDS011;11429;50.842;4.386;2022-12-11T05:54:38;47.53;;;22.80;;
22525;SDS011;11429;50.842;4.386;2022-12-11T05:57:05;39.15;;;21.67;;
22525;SDS011;11429;50.842;4.386;2022-12-11T05:59:30;40.42;;;21.77;;
22525;SDS011;11429;50.842;4.386;2022-12-11T06:01:56;44.67;;;23.85;;
22525;SDS011;11429;50.842;4.386;2022-12-11T06:04:22;40.17;;;20.98;;
22525;SDS011;11429;50.842;4.386;2022-12-11T06:06:48;42.38;;;21.05;;
22525;SDS011;11429;50.842;4.386;2022-12-11T06:09:14;40.28;;;22.15;;
22525;SDS011;11429;50.842;4.386;2022-12-11T06:11:41;46.20;;;21.75;;
22525;SDS011;11429;50.842;4.386;2022-12-11T06:14:08;45.80;;;23.25;;
22525;SDS011;11429;50.842;4.386;2022-12-11T06:16:35;44.97;;;24.20;;
22525;SDS011;11429;50.842;4.386;2022-12-11T06:19:01;40.85;;;22.08;;
22525;SDS011;11429;50.842;4.386;2022-12-11T06:21:29;42.63;;;21.75;;
22525;SDS011;11429;50.842;4.386;2022-12-11T06:23:59;45.22;;;23.45;;
22525;SDS011;11429;50.842;4.386;2022-12-11T06:26:27;40.75;;;21.73;;
22525;SDS011;11429;50.842;4.386;2022-12-11T06:28:55;47.35;;;23.13;;
22525;SDS011;11429;50.842;4.386;2022-12-11T06:31:20;41.05;;;22.05;;
22525;SDS011;11429;50.842;4.386;2022-12-11T06:33:46;45.78;;;23.83;;
22525;SDS011;11429;50.842;4.386;2022-12-11T06:36:14;44.95;;;24.33;;
22525;SDS011;11429;50.842;4.386;2022-12-11T06:38:41;43.15;;;22.52;;
22525;SDS011;11429;50.842;4.386;2022-12-11T06:41:08;43.35;;;21.85;;
22525;SDS011;11429;50.842;4.386;2022-12-11T06:43:35;44.40;;;22.17;;
22525;SDS011;11429;50.842;4.386;2022-12-11T06:46:11;46.15;;;23.15;;
22525;SDS011;11429;50.842;4.386;2022-12-11T06:48:43;43.25;;;22.52;;
22525;SDS011;11429;50.842;4.386;2022-12-11T06:51:20;43.38;;;22.88;;
22525;SDS011;11429;50.842;4.386;2022-12-11T06:53:50;42.25;;;23.00;;
22525;SDS011;11429;50.842;4.386;2022-12-11T06:56:28;50.28;;;24.27;;
22525;SDS011;11429;50.842;4.386;2022-12-11T06:58:58;45.63;;;22.67;;
22525;SDS011;11429;50.842;4.386;2022-12-11T07:01:42;45.53;;;23.88;;
22525;SDS011;11429;50.842;4.386;2022-12-11T07:04:38;46.58;;;23.45;;
22525;SDS011;11429;50.842;4.386;2022-12-11T07:07:12;43.42;;;23.08;;
22525;SDS011;11429;50.842;4.386;2022-12-11T07:09:43;44.33;;;22.20;;
22525;SDS011;11429;50.842;4.386;2022-12-11T07:12:12;42.60;;;22.55;;
22525;SDS011;11429;50.842;4.386;2022-12-11T07:14:42;43.08;;;22.70;;
22525;SDS011;11429;50.842;4.386;2022-12-11T07:17:18;46.28;;;23.67;;
22525;SDS011;11429;50.842;4.386;2022-12-11T07:19:45;41.72;;;22.73;;
22525;SDS011;11429;50.842;4.386;2022-12-11T07:22:11;43.15;;;21.92;;
22525;SDS011;11429;50.842;4.386;2022-12-11T07:27:23;44.17;;;23.23;;
22525;SDS011;11429;50.842;4.386;2022-12-11T07:29:57;47.35;;;23.27;;
22525;SDS011;11429;50.842;4.386;2022-12-11T07:32:49;40.03;;;21.50;;
22525;SDS011;11429;50.842;4.386;2022-12-11T07:35:26;44.33;;;23.30;;
22525;SDS011;11429;50.842;4.386;2022-12-11T07:37:52;45.55;;;23.88;;
22525;SDS011;11429;50.842;4.386;2022-12-11T07:40:18;41.17;;;22.45;;
22525;SDS011;11429;50.842;4.386;2022-12-11T07:42:43;42.95;;;21.10;;
22525;SDS011;11429;50.842;4.386;2022-12-11T07:45:09;41.58;;;21.88;;
22525;SDS011;11429;50.842;4.386;2022-12-11T07:47:41;43.10;;;21.38;;
22525;SDS011;11429;50.842;4.386;2022-12-11T07:50:10;39.55;;;20.50;;
22525;SDS011;11429;50.842;4.386;2022-12-11T07:52:35;39.35;;;21.08;;
22525;SDS011;11429;50.842;4.386;2022-12-11T07:55:01;45.50;;;21.63;;
22525;SDS011;11429;50.842;4.386;2022-12-11T07:57:27;40.28;;;20.20;;
22525;SDS011;11429;50.842;4.386;2022-12-11T07:59:57;39.42;;;20.63;;
22525;SDS011;11429;50.842;4.386;2022-12-11T08:02:22;40.33;;;20.33;;
22525;SDS011;11429;50.842;4.386;2022-12-11T08:04:49;40.78;;;21.73;;
22525;SDS011;11429;50.842;4.386;2022-12-11T08:07:15;41.20;;;21.77;;
22525;SDS011;11429;50.842;4.386;2022-12-11T08:09:41;34.85;;;19.27;;
22525;SDS011;11429;50.842;4.386;2022-12-11T08:12:06;39.05;;;20.05;;
22525;SDS011;11429;50.842;4.386;2022-12-11T08:14:32;36.95;;;19.85;;
22525;SDS011;11429;50.842;4.386;2022-12-11T08:17:01;41.47;;;21.23;;
22525;SDS011;11429;50.842;4.386;2022-12-11T08:19:29;42.22;;;22.08;;
22525;SDS011;11429;50.842;4.386;2022-12-11T08:21:55;38.50;;;19.63;;
22525;SDS011;11429;50.842;4.386;2022-12-11T08:24:21;33.00;;;17.98;;
22525;SDS011;11429;50.842;4.386;2022-12-11T08:26:46;39.42;;;18.92;;
22525;SDS011;11429;50.842;4.386;2022-12-11T08:29:13;39.05;;;20.13;;
22525;SDS011;11429;50.842;4.386;2022-12-11T08:31:39;39.75;;;19.80;;
22525;SDS011;11429;50.842;4.386;2022-12-11T08:34:06;34.70;;;18.80;;
22525;SDS011;11429;50.842;4.386;2022-12-11T08:36:31;37.88;;;19.27;;
22525;SDS011;11429;50.842;4.386;2022-12-11T08:38:57;38.30;;;19.67;;
22525;SDS011;11429;50.842;4.386;2022-12-11T08:41:25;37.97;;;19.20;;
22525;SDS011;11429;50.842;4.386;2022-12-11T08:46:55;37.80;;;19.50;;
22525;SDS011;11429;50.842;4.386;2022-12-11T08:49:21;38.17;;;18.80;;
22525;SDS011;11429;50.842;4.386;2022-12-11T08:51:47;34.25;;;19.15;;
22525;SDS011;11429;50.842;4.386;2022-12-11T08:54:12;35.53;;;19.25;;
22525;SDS011;11429;50.842;4.386;2022-12-11T08:56:41;35.03;;;18.00;;
22525;SDS011;11429;50.842;4.386;2022-12-11T08:59:17;34.78;;;18.17;;
22525;SDS011;11429;50.842;4.386;2022-12-11T09:01:42;31.45;;;17.50;;
22525;SDS011;11429;50.842;4.386;2022-12-11T09:04:11;36.15;;;19.05;;
22525;SDS011;11429;50.842;4.386;2022-12-11T09:06:37;31.67;;;17.83;;
22525;SDS011;11429;50.842;4.386;2022-12-11T09:09:03;35.75;;;19.52;;
22525;SDS011;11429;50.842;4.386;2022-12-11T09:11:32;36.88;;;19.15;;
22525;SDS011;11429;50.842;4.386;2022-12-11T09:14:00;33.72;;;18.10;;
22525;SDS011;11429;50.842;4.386;2022-12-11T09:16:29;33.85;;;17.33;;
22525;SDS011;11429;50.842;4.386;2022-12-11T09:18:56;30.73;;;15.88;;
22525;SDS011;11429;50.842;4.386;2022-12-11T09:21:24;34.05;;;16.60;;
22525;SDS011;11429;50.842;4.386;2022-12-11T09:23:53;33.97;;;17.83;;
22525;SDS011;11429;50.842;4.386;2022-12-11T09:26:23;32.53;;;17.38;;
22525;SDS011;11429;50.842;4.386;2022-12-11T09:28:49;36.17;;;17.58;;
22525;SDS011;11429;50.842;4.386;2022-12-11T09:33:50;32.20;;;16.35;;
22525;SDS011;11429;50.842;4.386;2022-12-11T09:36:18;36.63;;;18.92;;
22525;SDS011;11429;50.842;4.386;2022-12-11T09:38:45;36.58;;;18.48;;
22525;SDS011;11429;50.842;4.386;2022-12-11T09:47:22;34.67;;;18.23;;
22525;SDS011;11429;50.842;4.386;2022-12-11T09:52:32;36.20;;;17.48;;
22525;SDS011;11429;50.842;4.386;2022-12-11T09:55:01;33.45;;;17.65;;
22525;SDS011;11429;50.842;4.386;2022-12-11T10:00:36;36.33;;;18.60;;
22525;SDS011;11429;50.842;4.386;2022-12-11T10:18:27;36.75;;;17.92;;
22525;SDS011;11429;50.842;4.386;2022-12-11T10:20:56;33.50;;;17.63;;
22525;SDS011;11429;50.842;4.386;2022-12-11T10:23:29;35.60;;;18.48;;
22525;SDS011;11429;50.842;4.386;2022-12-11T10:26:18;39.53;;;18.73;;
22525;SDS011;11429;50.842;4.386;2022-12-11T10:34:39;36.17;;;18.52;;
22525;SDS011;11429;50.842;4.386;2022-12-11T10:37:11;35.65;;;18.85;;
22525;SDS011;11429;50.842;4.386;2022-12-11T10:39:42;37.08;;;18.30;;
22525;SDS011;11429;50.842;4.386;2022-12-11T10:42:18;37.17;;;19.30;;
22525;SDS011;11429;50.842;4.386;2022-12-11T10:44:58;41.38;;;18.40;;
22525;SDS011;11429;50.842;4.386;2022-12-11T10:47:26;34.42;;;18.48;;
22525;SDS011;11429;50.842;4.386;2022-12-11T10:49:54;37.40;;;17.42;;
22525;SDS011;11429;50.842;4.386;2022-12-11T10:52:26;31.90;;;17.08;;
22525;SDS011;11429;50.842;4.386;2022-12-11T10:55:39;35.03;;;16.70;;
22525;SDS011;11429;50.842;4.386;2022-12-11T10:57:52;35.45;;;16.10;;
22525;SDS011;11429;50.842;4.386;2022-12-11T11:03:02;34.45;;;17.00;;
22525;SDS011;11429;50.842;4.386;2022-12-11T11:05:34;33.70;;;17.25;;
22525;SDS011;11429;50.842;4.386;2022-12-11T11:08:22;36.00;;;17.45;;
22525;SDS011;11429;50.842;4.386;2022-12-11T11:13:19;33.15;;;16.60;;
22525;SDS011;11429;50.842;4.386;2022-12-11T11:15:47;30.13;;;15.68;;
22525;SDS011;11429;50.842;4.386;2022-12-11T11:18:21;29.05;;;15.63;;
22525;SDS011;11429;50.842;4.386;2022-12-11T11:20:50;34.60;;;15.57;;
22525;SDS011;11429;50.842;4.386;2022-12-11T11:23:16;27.73;;;13.90;;
22525;SDS011;11429;50.842;4.386;2022-12-11T11:26:05;35.05;;;17.35;;
22525;SDS011;11429;50.842;4.386;2022-12-11T11:28:55;29.08;;;15.32;;
22525;SDS011;11429;50.842;4.386;2022-12-11T11:31:39;28.55;;;15.32;;
22525;SDS011;11429;50.842;4.386;2022-12-11T11:34:25;32.55;;;16.08;;
22525;SDS011;11429;50.842;4.386;2022-12-11T11:36:54;26.77;;;14.93;;
22525;SDS011;11429;50.842;4.386;2022-12-11T11:39:37;28.85;;;15.32;;
22525;SDS011;11429;50.842;4.386;2022-12-11T11:42:20;26.00;;;13.82;;
22525;SDS011;11429;50.842;4.386;2022-12-11T11:45:39;31.13;;;16.55;;
22525;SDS011;11429;50.842;4.386;2022-12-11T11:51:00;28.23;;;14.48;;
22525;SDS011;11429;50.842;4.386;2022-12-11T11:53:51;26.48;;;14.07;;
22525;SDS011;11429;50.842;4.386;2022-12-11T11:56:30;44.55;;;24.80;;
22525;SDS011;11429;50.842;4.386;2022-12-11T12:01:50;24.88;;;12.43;;
22525;SDS011;11429;50.842;4.386;2022-12-11T12:04:20;27.65;;;12.98;;
22525;SDS011;11429;50.842;4.386;2022-12-11T12:40:16;38.72;;;17.63;;
22525;SDS011;11429;50.842;4.386;2022-12-11T12:42:57;31.65;;;15.02;;
22525;SDS011;11429;50.842;4.386;2022-12-11T12:45:51;31.00;;;14.38;;
22525;SDS011;11429;50.842;4.386;2022-12-11T12:48:48;29.45;;;14.05;;
22525;SDS011;11429;50.842;4.386;2022-12-11T12:51:17;30.90;;;14.77;;
22525;SDS011;11429;50.842;4.386;2022-12-11T12:53:48;33.58;;;15.30;;
22525;SDS011;11429;50.842;4.386;2022-12-11T12:56:20;30.30;;;14.93;;
22525;SDS011;11429;50.842;4.386;2022-12-11T12:58:48;33.85;;;15.82;;
22525;SDS011;11429;50.842;4.386;2022-12-11T13:06:41;34.58;;;17.48;;
22525;SDS011;11429;50.842;4.386;2022-12-11T13:11:35;32.70;;;15.95;;
22525;SDS011;11429;50.842;4.386;2022-12-11T13:14:22;30.75;;;15.18;;
22525;SDS011;11429;50.842;4.386;2022-12-11T13:17:06;32.53;;;16.45;;
22525;SDS011;11429;50.842;4.386;2022-12-11T13:19:44;31.23;;;15.13;;
22525;SDS011;11429;50.842;4.386;2022-12-11T13:32:41;36.13;;;17.00;;
22525;SDS011;11429;50.842;4.386;2022-12-11T13:35:20;39.45;;;17.90;;
22525;SDS011;11429;50.842;4.386;2022-12-11T13:37:48;38.63;;;17.75;;
22525;SDS011;11429;50.842;4.386;2022-12-11T13:40:18;36.78;;;17.00;;
22525;SDS011;11429;50.842;4.386;2022-12-11T13:45:22;40.65;;;17.02;;
22525;SDS011;11429;50.842;4.386;2022-12-11T13:47:56;40.67;;;19.02;;
22525;SDS011;11429;50.842;4.386;2022-12-11T13:50:27;37.75;;;18.33;;
22525;SDS011;11429;50.842;4.386;2022-12-11T13:52:56;42.13;;;19.48;;
22525;SDS011;11429;50.842;4.386;2022-12-11T13:55:28;43.85;;;20.02;;
22525;SDS011;11429;50.842;4.386;2022-12-11T13:57:58;39.35;;;19.42;;
22525;SDS011;11429;50.842;4.386;2022-12-11T14:00:28;44.25;;;20.20;;
22525;SDS011;11429;50.842;4.386;2022-12-11T14:02:57;43.95;;;20.63;;
22525;SDS011;11429;50.842;4.386;2022-12-11T14:05:25;41.53;;;21.05;;
22525;SDS011;11429;50.842;4.386;2022-12-11T14:07:54;41.45;;;19.95;;
22525;SDS011;11429;50.842;4.386;2022-12-11T14:10:25;46.00;;;20.42;;
22525;SDS011;11429;50.842;4.386;2022-12-11T14:13:05;42.70;;;19.00;;
22525;SDS011;11429;50.842;4.386;2022-12-11T14:15:42;40.83;;;19.23;;
22525;SDS011;11429;50.842;4.386;2022-12-11T14:18:13;42.72;;;19.73;;
22525;SDS011;11429;50.842;4.386;2022-12-11T14:21:04;40.40;;;19.77;;
22525;SDS011;11429;50.842;4.386;2022-12-11T14:23:31;35.75;;;18.02;;
22525;SDS011;11429;50.842;4.386;2022-12-11T14:25:59;38.75;;;18.90;;
22525;SDS011;11429;50.842;4.386;2022-12-11T14:28:25;39.85;;;19.35;;
22525;SDS011;11429;50.842;4.386;2022-12-11T14:30:54;40.22;;;18.17;;
22525;SDS011;11429;50.842;4.386;2022-12-11T14:33:24;39.13;;;19.42;;
22525;SDS011;11429;50.842;4.386;2022-12-11T14:36:01;40.60;;;19.60;;
22525;SDS011;11429;50.842;4.386;2022-12-11T14:38:29;37.75;;;19.55;;
22525;SDS011;11429;50.842;4.386;2022-12-11T14:41:02;39.85;;;19.70;;
22525;SDS011;11429;50.842;4.386;2022-12-11T14:43:34;41.60;;;18.98;;
22525;SDS011;11429;50.842;4.386;2022-12-11T14:46:08;43.70;;;20.70;;
22525;SDS011;11429;50.842;4.386;2022-12-11T14:48:45;44.17;;;20.70;;
22525;SDS011;11429;50.842;4.386;2022-12-11T14:51:25;37.90;;;19.08;;
22525;SDS011;11429;50.842;4.386;2022-12-11T14:53:54;41.70;;;19.77;;
22525;SDS011;11429;50.842;4.386;2022-12-11T14:56:24;44.45;;;20.58;;
22525;SDS011;11429;50.842;4.386;2022-12-11T14:58:55;40.85;;;19.40;;
22525;SDS011;11429;50.842;4.386;2022-12-11T15:01:31;38.97;;;19.13;;
22525;SDS011;11429;50.842;4.386;2022-12-11T15:04:06;38.70;;;18.15;;
22525;SDS011;11429;50.842;4.386;2022-12-11T15:06:49;38.20;;;18.50;;
22525;SDS011;11429;50.842;4.386;2022-12-11T15:09:19;39.80;;;18.85;;
22525;SDS011;11429;50.842;4.386;2022-12-11T15:11:49;36.00;;;17.75;;
22525;SDS011;11429;50.842;4.386;2022-12-11T15:14:19;37.88;;;17.60;;
22525;SDS011;11429;50.842;4.386;2022-12-11T15:16:47;32.63;;;15.82;;
22525;SDS011;11429;50.842;4.386;2022-12-11T15:19:21;32.97;;;16.27;;
22525;SDS011;11429;50.842;4.386;2022-12-11T15:22:02;31.23;;;15.95;;
22525;SDS011;11429;50.842;4.386;2022-12-11T15:24:39;31.15;;;15.85;;
22525;SDS011;11429;50.842;4.386;2022-12-11T15:27:29;33.00;;;16.70;;
22525;SDS011;11429;50.842;4.386;2022-12-11T15:32:48;31.25;;;16.30;;
22525;SDS011;11429;50.842;4.386;2022-12-11T15:35:25;26.60;;;15.02;;
22525;SDS011;11429;50.842;4.386;2022-12-11T15:37:55;29.77;;;15.88;;
22525;SDS011;11429;50.842;4.386;2022-12-11T15:40:22;30.55;;;16.10;;
22525;SDS011;11429;50.842;4.386;2022-12-11T15:42:48;30.80;;;15.20;;
22525;SDS011;11429;50.842;4.386;2022-12-11T15:45:21;28.52;;;15.32;;
22525;SDS011;11429;50.842;4.386;2022-12-11T15:47:52;29.58;;;15.35;;
22525;SDS011;11429;50.842;4.386;2022-12-11T15:50:23;27.15;;;15.95;;
22525;SDS011;11429;50.842;4.386;2022-12-11T15:52:53;27.73;;;15.80;;
22525;SDS011;11429;50.842;4.386;2022-12-11T15:55:20;28.00;;;15.68;;
22525;SDS011;11429;50.842;4.386;2022-12-11T15:57:51;29.40;;;16.05;;
22525;SDS011;11429;50.842;4.386;2022-12-11T16:00:20;31.10;;;16.00;;
22525;SDS011;11429;50.842;4.386;2022-12-11T16:02:48;26.17;;;15.45;;
22525;SDS011;11429;50.842;4.386;2022-12-11T16:05:14;26.30;;;15.05;;
22525;SDS011;11429;50.842;4.386;2022-12-11T16:07:40;25.88;;;14.40;;
22525;SDS011;11429;50.842;4.386;2022-12-11T16:10:06;25.83;;;15.15;;
22525;SDS011;11429;50.842;4.386;2022-12-11T16:12:37;24.38;;;13.25;;
22525;SDS011;11429;50.842;4.386;2022-12-11T16:15:03;27.33;;;14.85;;
22525;SDS011;11429;50.842;4.386;2022-12-11T16:17:29;25.70;;;13.98;;
22525;SDS011;11429;50.842;4.386;2022-12-11T16:19:55;27.17;;;15.02;;
22525;SDS011;11429;50.842;4.386;2022-12-11T16:22:21;28.20;;;14.95;;
22525;SDS011;11429;50.842;4.386;2022-12-11T16:24:46;25.90;;;15.07;;
22525;SDS011;11429;50.842;4.386;2022-12-11T16:27:12;25.08;;;14.27;;
22525;SDS011;11429;50.842;4.386;2022-12-11T16:29:40;26.15;;;14.75;;
22525;SDS011;11429;50.842;4.386;2022-12-11T16:32:06;26.60;;;15.43;;
22525;SDS011;11429;50.842;4.386;2022-12-11T16:34:32;26.70;;;14.57;;
22525;SDS011;11429;50.842;4.386;2022-12-11T16:36:59;25.27;;;14.35;;
22525;SDS011;11429;50.842;4.386;2022-12-11T16:39:26;27.90;;;15.65;;
22525;SDS011;11429;50.842;4.386;2022-12-11T16:41:53;26.27;;;15.43;;
22525;SDS011;11429;50.842;4.386;2022-12-11T16:44:19;27.92;;;16.00;;
22525;SDS011;11429;50.842;4.386;2022-12-11T16:46:46;28.25;;;16.05;;
22525;SDS011;11429;50.842;4.386;2022-12-11T16:49:12;28.45;;;14.98;;